sensor_id;sensor_type;location;lat;lon;timestamp;pressure;altitude;pressure_sealevel;temperature;humidity
75188;BME280;63762;51.334;22.108;2024-03-02T00:04:04;101486.30;;;7.90;78.60
75188;BME280;63762;51.334;22.108;2024-03-02T00:14:09;101500.36;;;7.94;78.55
75188;BME280;63762;51.334;22.108;2024-03-02T00:34:30;101482.48;;;7.94;79.20
75188;BME280;63762;51.334;22.108;2024-03-02T00:44:33;101488.01;;;7.91;78.75
75188;BME280;63762;51.334;22.108;2024-03-02T00:54:38;101499.86;;;7.87;78.90
75188;BME280;63762;51.334;22.108;2024-03-02T01:04:45;101486.81;;;7.81;79.13
75188;BME280;63762;51.334;22.108;2024-03-02T01:14:52;101495.63;;;7.83;79.13
75188;BME280;63762;51.334;22.108;2024-03-02T01:24:59;101479.22;;;7.89;78.90
75188;BME280;63762;51.334;22.108;2024-03-02T01:35:07;101463.73;;;7.94;78.73
75188;BME280;63762;51.334;22.108;2024-03-02T01:45:14;101460.95;;;7.96;78.54
75188;BME280;63762;51.334;22.108;2024-03-02T01:55:21;101450.07;;;7.99;78.50
75188;BME280;63762;51.334;22.108;2024-03-02T02:05:28;101452.05;;;7.95;78.58
75188;BME280;63762;51.334;22.108;2024-03-02T02:15:35;101452.77;;;7.83;78.97
75188;BME280;63762;51.334;22.108;2024-03-02T02:25:42;101432.80;;;7.89;78.72
75188;BME280;63762;51.334;22.108;2024-03-02T02:35:49;101430.30;;;7.86;78.71
75188;BME280;63762;51.334;22.108;2024-03-02T02:45:56;101433.58;;;7.75;78.77
75188;BME280;63762;51.334;22.108;2024-03-02T02:56:04;101425.29;;;7.80;78.77
75188;BME280;63762;51.334;22.108;2024-03-02T03:06:11;101420.97;;;7.77;79.08
75188;BME280;63762;51.334;22.108;2024-03-02T03:16:18;101414.74;;;7.77;79.25
75188;BME280;63762;51.334;22.108;2024-03-02T03:26:25;101406.96;;;7.72;79.51
75188;BME280;63762;51.334;22.108;2024-03-02T03:36:32;101404.55;;;7.68;79.96
75188;BME280;63762;51.334;22.108;2024-03-02T03:46:39;101399.27;;;7.66;80.27
75188;BME280;63762;51.334;22.108;2024-03-02T03:56:46;101404.46;;;7.69;80.35
75188;BME280;63762;51.334;22.108;2024-03-02T04:06:53;101384.43;;;7.61;80.66
75188;BME280;63762;51.334;22.108;2024-03-02T04:17:01;101385.55;;;7.72;80.43
75188;BME280;63762;51.334;22.108;2024-03-02T04:27:08;101398.94;;;7.72;80.38
75188;BME280;63762;51.334;22.108;2024-03-02T04:37:15;101392.83;;;7.70;80.36
75188;BME280;63762;51.334;22.108;2024-03-02T04:47:22;101399.20;;;7.68;80.35
75188;BME280;63762;51.334;22.108;2024-03-02T04:57:29;101401.78;;;7.69;80.35
75188;BME280;63762;51.334;22.108;2024-03-02T05:07:36;101403.36;;;7.73;80.22
75188;BME280;63762;51.334;22.108;2024-03-02T05:17:43;101419.60;;;7.70;80.18
75188;BME280;63762;51.334;22.108;2024-03-02T05:27:50;101430.66;;;7.64;80.66
75188;BME280;63762;51.334;22.108;2024-03-02T05:37:58;101440.86;;;7.73;80.57
75188;BME280;63762;51.334;22.108;2024-03-02T05:48:07;101454.51;;;7.69;80.92
75188;BME280;63762;51.334;22.108;2024-03-02T05:58:12;101462.11;;;7.76;80.87
75188;BME280;63762;51.334;22.108;2024-03-02T06:08:23;101465.20;;;7.84;81.07
75188;BME280;63762;51.334;22.108;2024-03-02T06:18:26;101470.13;;;7.92;80.96
75188;BME280;63762;51.334;22.108;2024-03-02T06:28:33;101475.41;;;7.93;80.86
75188;BME280;63762;51.334;22.108;2024-03-02T06:38:40;101471.59;;;7.97;80.90
75188;BME280;63762;51.334;22.108;2024-03-02T06:51:55;101467.78;;;8.01;81.01
75188;BME280;63762;51.334;22.108;2024-03-02T07:02:03;101477.98;;;8.10;80.99
75188;BME280;63762;51.334;22.108;2024-03-02T07:12:10;101500.04;;;8.15;80.89
75188;BME280;63762;51.334;22.108;2024-03-02T07:22:17;101493.88;;;8.13;80.53
75188;BME280;63762;51.334;22.108;2024-03-02T07:32:24;101504.59;;;8.13;80.35
75188;BME280;63762;51.334;22.108;2024-03-02T07:42:31;101527.76;;;8.14;80.07
75188;BME280;63762;51.334;22.108;2024-03-02T07:52:38;101522.58;;;8.11;79.88
75188;BME280;63762;51.334;22.108;2024-03-02T08:02:45;101526.13;;;8.12;79.69
75188;BME280;63762;51.334;22.108;2024-03-02T08:12:52;101523.98;;;8.18;79.66
75188;BME280;63762;51.334;22.108;2024-03-02T08:22:59;101518.45;;;8.37;79.38
75188;BME280;63762;51.334;22.108;2024-03-02T08:33:07;101520.79;;;8.43;79.16
75188;BME280;63762;51.334;22.108;2024-03-02T08:43:14;101507.51;;;8.55;78.92
75188;BME280;63762;51.334;22.108;2024-03-02T08:53:21;101508.78;;;8.64;78.42
75188;BME280;63762;51.334;22.108;2024-03-02T09:03:28;101504.69;;;8.72;78.01
75188;BME280;63762;51.334;22.108;2024-03-02T09:13:35;101514.61;;;8.86;78.10
75188;BME280;63762;51.334;22.108;2024-03-02T09:23:42;101513.78;;;8.99;77.87
75188;BME280;63762;51.334;22.108;2024-03-02T09:33:50;101507.46;;;9.14;77.59
75188;BME280;63762;51.334;22.108;2024-03-02T09:43:57;101512.87;;;9.29;77.27
75188;BME280;63762;51.334;22.108;2024-03-02T09:54:04;101523.03;;;9.52;76.70
75188;BME280;63762;51.334;22.108;2024-03-02T10:04:12;101508.82;;;9.78;75.73
75188;BME280;63762;51.334;22.108;2024-03-02T10:14:18;101504.83;;;9.97;75.35
75188;BME280;63762;51.334;22.108;2024-03-02T10:24:25;101490.04;;;10.18;74.49
75188;BME280;63762;51.334;22.108;2024-03-02T10:34:32;101498.34;;;10.28;73.90
75188;BME280;63762;51.334;22.108;2024-03-02T10:44:39;101494.82;;;10.54;73.79
75188;BME280;63762;51.334;22.108;2024-03-02T10:54:46;101496.12;;;10.61;73.28
75188;BME280;63762;51.334;22.108;2024-03-02T11:04:55;101492.27;;;10.77;72.51
75188;BME280;63762;51.334;22.108;2024-03-02T11:15:04;101487.98;;;10.87;71.99
75188;BME280;63762;51.334;22.108;2024-03-02T11:35:21;101495.10;;;10.88;71.08
75188;BME280;63762;51.334;22.108;2024-03-02T11:45:28;101500.18;;;10.93;70.69
75188;BME280;63762;51.334;22.108;2024-03-02T11:55:34;101493.18;;;11.03;71.07
75188;BME280;63762;51.334;22.108;2024-03-02T12:05:36;101490.49;;;11.15;71.11
75188;BME280;63762;51.334;22.108;2024-03-02T12:15:43;101485.42;;;11.11;70.91
75188;BME280;63762;51.334;22.108;2024-03-02T12:25:51;101481.32;;;11.18;70.54
75188;BME280;63762;51.334;22.108;2024-03-02T12:35:58;101481.02;;;11.35;70.41
75188;BME280;63762;51.334;22.108;2024-03-02T12:46:05;101476.36;;;11.37;69.96
75188;BME280;63762;51.334;22.108;2024-03-02T12:56:12;101473.16;;;11.32;69.86
75188;BME280;63762;51.334;22.108;2024-03-02T13:06:20;101487.35;;;11.34;69.91
75188;BME280;63762;51.334;22.108;2024-03-02T13:16:26;101460.64;;;11.44;70.29
75188;BME280;63762;51.334;22.108;2024-03-02T13:26:33;101455.47;;;11.41;70.10
75188;BME280;63762;51.334;22.108;2024-03-02T13:36:40;101451.58;;;11.45;70.19
75188;BME280;63762;51.334;22.108;2024-03-02T13:46:48;101451.69;;;11.43;70.26
75188;BME280;63762;51.334;22.108;2024-03-02T13:56:55;101457.61;;;11.35;70.06
75188;BME280;63762;51.334;22.108;2024-03-02T14:07:03;101456.99;;;11.32;70.07
75188;BME280;63762;51.334;22.108;2024-03-02T14:17:09;101453.74;;;11.27;70.17
75188;BME280;63762;51.334;22.108;2024-03-02T14:27:16;101463.32;;;11.31;70.25
75188;BME280;63762;51.334;22.108;2024-03-02T14:37:23;101454.39;;;11.18;70.54
75188;BME280;63762;51.334;22.108;2024-03-02T14:47:33;101455.59;;;11.14;70.43
75188;BME280;63762;51.334;22.108;2024-03-02T14:57:37;101451.81;;;11.04;70.72
75188;BME280;63762;51.334;22.108;2024-03-02T15:07:44;101465.59;;;10.87;70.85
75188;BME280;63762;51.334;22.108;2024-03-02T15:17:52;101469.69;;;10.80;71.12
75188;BME280;63762;51.334;22.108;2024-03-02T15:27:59;101467.20;;;10.77;71.18
75188;BME280;63762;51.334;22.108;2024-03-02T15:38:06;101461.82;;;10.77;71.30
75188;BME280;63762;51.334;22.108;2024-03-02T15:48:13;101469.54;;;10.69;71.47
75188;BME280;63762;51.334;22.108;2024-03-02T15:58:20;101459.30;;;10.61;71.54
75188;BME280;63762;51.334;22.108;2024-03-02T16:08:27;101459.95;;;10.52;71.81
75188;BME280;63762;51.334;22.108;2024-03-02T16:18:34;101466.77;;;10.44;72.04
75188;BME280;63762;51.334;22.108;2024-03-02T16:28:41;101466.54;;;10.34;72.27
75188;BME280;63762;51.334;22.108;2024-03-02T16:38:49;101482.10;;;10.29;72.42
75188;BME280;63762;51.334;22.108;2024-03-02T16:48:56;101481.57;;;10.24;72.61
75188;BME280;63762;51.334;22.108;2024-03-02T16:59:03;101483.78;;;10.18;72.91
75188;BME280;63762;51.334;22.108;2024-03-02T17:09:10;101475.27;;;10.11;73.12
75188;BME280;63762;51.334;22.108;2024-03-02T17:19:17;101476.35;;;10.09;73.31
75188;BME280;63762;51.334;22.108;2024-03-02T17:29:24;101468.45;;;10.06;73.31
75188;BME280;63762;51.334;22.108;2024-03-02T17:39:31;101456.93;;;10.04;73.46
75188;BME280;63762;51.334;22.108;2024-03-02T17:49:39;101458.83;;;10.02;73.58
75188;BME280;63762;51.334;22.108;2024-03-02T17:59:46;101454.53;;;9.99;73.57
75188;BME280;63762;51.334;22.108;2024-03-02T18:09:53;101450.23;;;9.97;73.77
75188;BME280;63762;51.334;22.108;2024-03-02T18:20:00;101450.63;;;9.91;74.04
75188;BME280;63762;51.334;22.108;2024-03-02T18:30:08;101473.65;;;9.95;74.03
75188;BME280;63762;51.334;22.108;2024-03-02T18:40:14;101468.27;;;9.95;73.90
75188;BME280;63762;51.334;22.108;2024-03-02T18:50:22;101462.89;;;9.95;73.94
75188;BME280;63762;51.334;22.108;2024-03-02T19:00:28;101472.22;;;9.89;73.80
75188;BME280;63762;51.334;22.108;2024-03-02T19:10:36;101463.30;;;9.89;73.72
75188;BME280;63762;51.334;22.108;2024-03-02T19:20:43;101468.13;;;9.84;74.02
75188;BME280;63762;51.334;22.108;2024-03-02T19:30:50;101483.37;;;9.83;73.90
75188;BME280;63762;51.334;22.108;2024-03-02T19:40:57;101479.94;;;9.81;73.61
75188;BME280;63762;51.334;22.108;2024-03-02T19:51:04;101489.13;;;9.77;73.53
75188;BME280;63762;51.334;22.108;2024-03-02T20:01:11;101484.25;;;9.70;73.46
75188;BME280;63762;51.334;22.108;2024-03-02T20:11:18;101471.88;;;9.67;73.26
75188;BME280;63762;51.334;22.108;2024-03-02T20:21:25;101474.96;;;9.61;72.85
75188;BME280;63762;51.334;22.108;2024-03-02T20:31:33;101498.38;;;9.59;72.30
75188;BME280;63762;51.334;22.108;2024-03-02T20:41:40;101482.74;;;9.52;71.81
75188;BME280;63762;51.334;22.108;2024-03-02T20:51:47;101476.79;;;9.47;71.49
75188;BME280;63762;51.334;22.108;2024-03-02T21:01:54;101480.17;;;9.36;70.55
75188;BME280;63762;51.334;22.108;2024-03-02T21:12:01;101476.20;;;9.28;69.96
75188;BME280;63762;51.334;22.108;2024-03-02T21:22:08;101473.24;;;9.18;69.43
75188;BME280;63762;51.334;22.108;2024-03-02T21:32:15;101459.13;;;9.14;69.13
75188;BME280;63762;51.334;22.108;2024-03-02T21:42:22;101471.81;;;9.13;68.87
75188;BME280;63762;51.334;22.108;2024-03-02T21:52:30;101462.98;;;9.10;68.65
75188;BME280;63762;51.334;22.108;2024-03-02T22:02:37;101465.30;;;9.02;68.67
75188;BME280;63762;51.334;22.108;2024-03-02T22:12:44;101474.09;;;9.04;68.59
75188;BME280;63762;51.334;22.108;2024-03-02T22:22:51;101450.90;;;9.03;68.54
75188;BME280;63762;51.334;22.108;2024-03-02T22:32:58;101450.13;;;9.01;68.63
75188;BME280;63762;51.334;22.108;2024-03-02T22:43:05;101460.11;;;8.99;68.52
75188;BME280;63762;51.334;22.108;2024-03-02T22:53:12;101464.60;;;8.99;68.66
75188;BME280;63762;51.334;22.108;2024-03-02T23:03:20;101471.67;;;9.00;68.70
75188;BME280;63762;51.334;22.108;2024-03-02T23:13:27;101463.73;;;8.98;68.60
75188;BME280;63762;51.334;22.108;2024-03-02T23:23:34;101464.22;;;9.05;68.52
75188;BME280;63762;51.334;22.108;2024-03-02T23:33:41;101454.37;;;9.05;68.48
75188;BME280;63762;51.334;22.108;2024-03-02T23:43:48;101459.55;;;9.08;68.54
75188;BME280;63762;51.334;22.108;2024-03-02T23:53:55;101450.71;;;9.06;68.79
